sensor_id;sensor_type;location;lat;lon;timestamp;temperature;humidity
46752;DHT22;32497;48.936;9.270;2023-05-07T00:03:04;14.50;76.20
46752;DHT22;32497;48.936;9.270;2023-05-07T00:08:05;14.70;75.40
46752;DHT22;32497;48.936;9.270;2023-05-07T00:13:07;14.90;73.80
46752;DHT22;32497;48.936;9.270;2023-05-07T00:18:08;14.90;74.10
46752;DHT22;32497;48.936;9.270;2023-05-07T00:23:09;14.90;74.10
46752;DHT22;32497;48.936;9.270;2023-05-07T00:28:12;14.70;74.00
46752;DHT22;32497;48.936;9.270;2023-05-07T00:33:13;14.70;74.80
46752;DHT22;32497;48.936;9.270;2023-05-07T00:38:14;14.70;74.90
46752;DHT22;32497;48.936;9.270;2023-05-07T00:43:16;14.60;75.30
46752;DHT22;32497;48.936;9.270;2023-05-07T00:48:18;14.30;75.30
46752;DHT22;32497;48.936;9.270;2023-05-07T00:53:19;14.20;76.40
46752;DHT22;32497;48.936;9.270;2023-05-07T00:58:23;14.10;76.80
46752;DHT22;32497;48.936;9.270;2023-05-07T01:03:25;14.00;76.80
46752;DHT22;32497;48.936;9.270;2023-05-07T01:08:26;14.00;76.90
46752;DHT22;32497;48.936;9.270;2023-05-07T01:13:30;13.90;76.90
46752;DHT22;32497;48.936;9.270;2023-05-07T01:18:32;13.70;77.00
46752;DHT22;32497;48.936;9.270;2023-05-07T01:23:35;13.70;77.60
46752;DHT22;32497;48.936;9.270;2023-05-07T01:28:36;13.70;78.20
46752;DHT22;32497;48.936;9.270;2023-05-07T01:33:38;13.50;78.00
46752;DHT22;32497;48.936;9.270;2023-05-07T01:38:43;13.40;78.40
46752;DHT22;32497;48.936;9.270;2023-05-07T01:43:46;13.30;79.00
46752;DHT22;32497;48.936;9.270;2023-05-07T01:48:48;13.20;79.30
46752;DHT22;32497;48.936;9.270;2023-05-07T01:53:52;13.20;79.30
46752;DHT22;32497;48.936;9.270;2023-05-07T01:58:54;13.10;79.70
46752;DHT22;32497;48.936;9.270;2023-05-07T02:03:56;13.10;80.00
46752;DHT22;32497;48.936;9.270;2023-05-07T02:09:02;13.20;79.60
46752;DHT22;32497;48.936;9.270;2023-05-07T02:14:03;13.20;78.80
46752;DHT22;32497;48.936;9.270;2023-05-07T02:19:04;13.20;78.30
46752;DHT22;32497;48.936;9.270;2023-05-07T02:24:07;13.20;78.30
46752;DHT22;32497;48.936;9.270;2023-05-07T02:29:08;13.20;78.30
46752;DHT22;32497;48.936;9.270;2023-05-07T02:34:10;13.20;78.50
46752;DHT22;32497;48.936;9.270;2023-05-07T02:39:13;13.20;78.80
46752;DHT22;32497;48.936;9.270;2023-05-07T02:44:14;13.30;78.30
46752;DHT22;32497;48.936;9.270;2023-05-07T02:49:16;13.20;78.80
46752;DHT22;32497;48.936;9.270;2023-05-07T02:54:18;12.90;78.80
46752;DHT22;32497;48.936;9.270;2023-05-07T02:59:19;12.90;78.90
46752;DHT22;32497;48.936;9.270;2023-05-07T03:04:20;12.80;79.00
46752;DHT22;32497;48.936;9.270;2023-05-07T03:09:23;12.70;79.50
46752;DHT22;32497;48.936;9.270;2023-05-07T03:14:24;12.70;79.20
46752;DHT22;32497;48.936;9.270;2023-05-07T03:19:25;12.60;79.60
46752;DHT22;32497;48.936;9.270;2023-05-07T03:24:28;12.60;80.00
46752;DHT22;32497;48.936;9.270;2023-05-07T03:29:29;12.40;80.50
46752;DHT22;32497;48.936;9.270;2023-05-07T03:34:30;12.40;80.50
46752;DHT22;32497;48.936;9.270;2023-05-07T03:39:33;12.40;80.60
46752;DHT22;32497;48.936;9.270;2023-05-07T03:44:35;12.40;80.50
46752;DHT22;32497;48.936;9.270;2023-05-07T03:49:36;12.30;80.30
46752;DHT22;32497;48.936;9.270;2023-05-07T03:54:39;12.30;80.50
46752;DHT22;32497;48.936;9.270;2023-05-07T03:59:40;12.10;80.80
46752;DHT22;32497;48.936;9.270;2023-05-07T04:04:43;12.10;81.20
46752;DHT22;32497;48.936;9.270;2023-05-07T04:09:45;12.10;81.40
46752;DHT22;32497;48.936;9.270;2023-05-07T04:14:46;12.20;81.50
46752;DHT22;32497;48.936;9.270;2023-05-07T04:19:48;12.30;81.10
46752;DHT22;32497;48.936;9.270;2023-05-07T04:24:52;12.40;80.90
46752;DHT22;32497;48.936;9.270;2023-05-07T04:29:53;12.40;80.60
46752;DHT22;32497;48.936;9.270;2023-05-07T04:34:54;12.60;80.80
46752;DHT22;32497;48.936;9.270;2023-05-07T04:39:57;12.80;80.10
46752;DHT22;32497;48.936;9.270;2023-05-07T04:44:59;13.00;80.00
46752;DHT22;32497;48.936;9.270;2023-05-07T04:50:00;13.20;79.40
46752;DHT22;32497;48.936;9.270;2023-05-07T04:55:04;13.50;78.70
46752;DHT22;32497;48.936;9.270;2023-05-07T05:00:10;13.60;77.40
46752;DHT22;32497;48.936;9.270;2023-05-07T05:05:13;13.60;77.20
46752;DHT22;32497;48.936;9.270;2023-05-07T05:10:17;14.10;76.70
46752;DHT22;32497;48.936;9.270;2023-05-07T05:15:18;14.30;75.70
46752;DHT22;32497;48.936;9.270;2023-05-07T05:20:20;14.30;76.30
46752;DHT22;32497;48.936;9.270;2023-05-07T05:25:24;14.40;76.50
46752;DHT22;32497;48.936;9.270;2023-05-07T05:30:26;14.40;77.40
46752;DHT22;32497;48.936;9.270;2023-05-07T05:35:27;14.40;78.30
46752;DHT22;32497;48.936;9.270;2023-05-07T05:40:30;14.50;77.80
46752;DHT22;32497;48.936;9.270;2023-05-07T05:45:31;14.70;77.00
46752;DHT22;32497;48.936;9.270;2023-05-07T05:50:32;14.90;76.10
46752;DHT22;32497;48.936;9.270;2023-05-07T05:55:35;15.10;74.20
46752;DHT22;32497;48.936;9.270;2023-05-07T06:00:36;15.60;74.30
46752;DHT22;32497;48.936;9.270;2023-05-07T06:05:40;16.10;74.50
46752;DHT22;32497;48.936;9.270;2023-05-07T06:10:42;16.20;74.00
46752;DHT22;32497;48.936;9.270;2023-05-07T06:15:43;16.20;73.00
46752;DHT22;32497;48.936;9.270;2023-05-07T06:20:47;16.20;70.60
46752;DHT22;32497;48.936;9.270;2023-05-07T06:25:58;16.10;71.30
46752;DHT22;32497;48.936;9.270;2023-05-07T06:31:12;16.60;71.50
46752;DHT22;32497;48.936;9.270;2023-05-07T06:36:14;16.90;69.00
46752;DHT22;32497;48.936;9.270;2023-05-07T06:41:17;17.50;67.40
46752;DHT22;32497;48.936;9.270;2023-05-07T06:46:18;18.20;67.00
46752;DHT22;32497;48.936;9.270;2023-05-07T06:51:20;19.00;62.30
46752;DHT22;32497;48.936;9.270;2023-05-07T06:56:23;19.40;63.30
46752;DHT22;32497;48.936;9.270;2023-05-07T07:01:25;19.70;62.20
46752;DHT22;32497;48.936;9.270;2023-05-07T07:06:26;20.00;60.00
46752;DHT22;32497;48.936;9.270;2023-05-07T07:11:28;20.20;61.40
46752;DHT22;32497;48.936;9.270;2023-05-07T07:16:30;20.40;58.80
46752;DHT22;32497;48.936;9.270;2023-05-07T07:21:31;20.00;57.70
46752;DHT22;32497;48.936;9.270;2023-05-07T07:26:34;20.10;58.20
46752;DHT22;32497;48.936;9.270;2023-05-07T07:31:35;20.20;58.80
46752;DHT22;32497;48.936;9.270;2023-05-07T07:36:36;20.50;56.60
46752;DHT22;32497;48.936;9.270;2023-05-07T07:41:39;20.20;58.70
46752;DHT22;32497;48.936;9.270;2023-05-07T07:46:40;20.00;60.20
46752;DHT22;32497;48.936;9.270;2023-05-07T07:51:42;20.20;59.90
46752;DHT22;32497;48.936;9.270;2023-05-07T07:56:47;21.00;59.50
46752;DHT22;32497;48.936;9.270;2023-05-07T08:01:49;21.10;55.90
46752;DHT22;32497;48.936;9.270;2023-05-07T08:06:50;21.10;54.10
46752;DHT22;32497;48.936;9.270;2023-05-07T08:11:53;20.50;55.90
46752;DHT22;32497;48.936;9.270;2023-05-07T08:16:54;20.50;57.50
46752;DHT22;32497;48.936;9.270;2023-05-07T08:21:57;20.60;58.40
46752;DHT22;32497;48.936;9.270;2023-05-07T08:27:01;21.00;58.80
46752;DHT22;32497;48.936;9.270;2023-05-07T08:32:02;21.20;56.80
46752;DHT22;32497;48.936;9.270;2023-05-07T08:37:03;21.10;55.40
46752;DHT22;32497;48.936;9.270;2023-05-07T08:42:07;21.80;55.60
46752;DHT22;32497;48.936;9.270;2023-05-07T08:47:10;22.60;54.00
46752;DHT22;32497;48.936;9.270;2023-05-07T08:52:12;22.70;51.70
46752;DHT22;32497;48.936;9.270;2023-05-07T08:57:15;22.70;54.70
46752;DHT22;32497;48.936;9.270;2023-05-07T09:02:16;22.70;54.30
46752;DHT22;32497;48.936;9.270;2023-05-07T09:07:18;22.90;53.80
46752;DHT22;32497;48.936;9.270;2023-05-07T09:12:21;23.30;51.10
46752;DHT22;32497;48.936;9.270;2023-05-07T09:17:23;23.80;49.70
46752;DHT22;32497;48.936;9.270;2023-05-07T09:22:24;24.90;45.50
46752;DHT22;32497;48.936;9.270;2023-05-07T09:27:33;25.20;46.80
46752;DHT22;32497;48.936;9.270;2023-05-07T09:32:35;25.00;48.30
46752;DHT22;32497;48.936;9.270;2023-05-07T09:37:37;25.20;48.20
46752;DHT22;32497;48.936;9.270;2023-05-07T09:42:40;26.30;46.40
46752;DHT22;32497;48.936;9.270;2023-05-07T09:47:42;26.50;46.10
46752;DHT22;32497;48.936;9.270;2023-05-07T09:52:44;26.60;45.40
46752;DHT22;32497;48.936;9.270;2023-05-07T09:57:48;27.40;41.60
46752;DHT22;32497;48.936;9.270;2023-05-07T10:02:53;28.00;41.70
46752;DHT22;32497;48.936;9.270;2023-05-07T10:08:05;28.90;39.00
46752;DHT22;32497;48.936;9.270;2023-05-07T10:13:10;29.40;39.70
46752;DHT22;32497;48.936;9.270;2023-05-07T10:18:15;30.50;36.20
46752;DHT22;32497;48.936;9.270;2023-05-07T10:23:23;30.60;37.00
46752;DHT22;32497;48.936;9.270;2023-05-07T10:28:29;30.60;36.00
46752;DHT22;32497;48.936;9.270;2023-05-07T10:33:32;30.10;36.90
46752;DHT22;32497;48.936;9.270;2023-05-07T10:38:34;30.00;35.90
46752;DHT22;32497;48.936;9.270;2023-05-07T10:43:42;30.90;36.40
46752;DHT22;32497;48.936;9.270;2023-05-07T10:49:06;31.50;31.30
46752;DHT22;32497;48.936;9.270;2023-05-07T10:54:19;30.00;36.40
46752;DHT22;32497;48.936;9.270;2023-05-07T10:59:37;29.50;38.00
46752;DHT22;32497;48.936;9.270;2023-05-07T11:05:20;30.20;35.40
46752;DHT22;32497;48.936;9.270;2023-05-07T11:10:26;30.10;35.60
46752;DHT22;32497;48.936;9.270;2023-05-07T11:15:56;29.30;36.60
46752;DHT22;32497;48.936;9.270;2023-05-07T11:21:06;29.20;38.10
46752;DHT22;32497;48.936;9.270;2023-05-07T11:26:30;28.70;37.70
46752;DHT22;32497;48.936;9.270;2023-05-07T11:31:34;28.40;39.30
46752;DHT22;32497;48.936;9.270;2023-05-07T11:36:36;28.20;37.80
46752;DHT22;32497;48.936;9.270;2023-05-07T11:41:42;27.70;37.90
46752;DHT22;32497;48.936;9.270;2023-05-07T11:46:44;26.60;39.40
46752;DHT22;32497;48.936;9.270;2023-05-07T11:51:45;26.90;43.10
46752;DHT22;32497;48.936;9.270;2023-05-07T11:56:47;27.10;41.10
46752;DHT22;32497;48.936;9.270;2023-05-07T12:01:49;26.70;41.80
46752;DHT22;32497;48.936;9.270;2023-05-07T12:06:53;26.80;42.80
46752;DHT22;32497;48.936;9.270;2023-05-07T12:11:55;27.20;43.30
46752;DHT22;32497;48.936;9.270;2023-05-07T12:16:57;26.90;43.80
46752;DHT22;32497;48.936;9.270;2023-05-07T12:22:00;27.20;44.80
46752;DHT22;32497;48.936;9.270;2023-05-07T12:27:02;27.50;42.60
46752;DHT22;32497;48.936;9.270;2023-05-07T12:32:05;27.80;42.40
46752;DHT22;32497;48.936;9.270;2023-05-07T12:37:06;28.10;41.80
46752;DHT22;32497;48.936;9.270;2023-05-07T12:42:07;28.20;41.70
46752;DHT22;32497;48.936;9.270;2023-05-07T12:47:10;27.80;41.10
46752;DHT22;32497;48.936;9.270;2023-05-07T12:52:11;27.00;42.60
46752;DHT22;32497;48.936;9.270;2023-05-07T12:57:12;27.10;43.10
46752;DHT22;32497;48.936;9.270;2023-05-07T13:02:15;26.90;43.20
46752;DHT22;32497;48.936;9.270;2023-05-07T13:07:16;26.70;43.60
46752;DHT22;32497;48.936;9.270;2023-05-07T13:12:17;26.40;42.20
46752;DHT22;32497;48.936;9.270;2023-05-07T13:17:20;26.40;43.80
46752;DHT22;32497;48.936;9.270;2023-05-07T13:22:21;26.20;45.20
46752;DHT22;32497;48.936;9.270;2023-05-07T13:27:22;25.00;46.00
46752;DHT22;32497;48.936;9.270;2023-05-07T13:32:25;23.10;51.40
46752;DHT22;32497;48.936;9.270;2023-05-07T13:37:26;22.40;54.10
46752;DHT22;32497;48.936;9.270;2023-05-07T13:42:27;21.20;58.40
46752;DHT22;32497;48.936;9.270;2023-05-07T13:47:29;20.50;59.50
46752;DHT22;32497;48.936;9.270;2023-05-07T13:52:30;19.70;62.80
46752;DHT22;32497;48.936;9.270;2023-05-07T13:57:31;19.00;66.30
46752;DHT22;32497;48.936;9.270;2023-05-07T14:02:34;17.80;73.90
46752;DHT22;32497;48.936;9.270;2023-05-07T14:07:35;16.30;80.00
46752;DHT22;32497;48.936;9.270;2023-05-07T14:12:36;15.70;82.60
46752;DHT22;32497;48.936;9.270;2023-05-07T14:17:39;15.90;86.40
46752;DHT22;32497;48.936;9.270;2023-05-07T14:22:40;16.00;84.40
46752;DHT22;32497;48.936;9.270;2023-05-07T14:27:41;16.00;86.00
46752;DHT22;32497;48.936;9.270;2023-05-07T14:32:43;16.10;86.20
46752;DHT22;32497;48.936;9.270;2023-05-07T14:37:45;16.20;82.50
46752;DHT22;32497;48.936;9.270;2023-05-07T14:42:46;16.20;84.90
46752;DHT22;32497;48.936;9.270;2023-05-07T14:47:48;16.30;85.30
46752;DHT22;32497;48.936;9.270;2023-05-07T14:52:50;16.50;87.70
46752;DHT22;32497;48.936;9.270;2023-05-07T14:57:51;16.70;88.20
46752;DHT22;32497;48.936;9.270;2023-05-07T15:02:54;16.70;87.50
46752;DHT22;32497;48.936;9.270;2023-05-07T15:07:56;16.70;88.40
46752;DHT22;32497;48.936;9.270;2023-05-07T15:12:58;16.70;87.10
46752;DHT22;32497;48.936;9.270;2023-05-07T15:18:00;16.80;88.20
46752;DHT22;32497;48.936;9.270;2023-05-07T15:23:01;16.90;88.00
46752;DHT22;32497;48.936;9.270;2023-05-07T15:28:02;17.20;88.60
46752;DHT22;32497;48.936;9.270;2023-05-07T15:33:05;17.30;86.10
46752;DHT22;32497;48.936;9.270;2023-05-07T15:38:06;17.20;86.70
46752;DHT22;32497;48.936;9.270;2023-05-07T15:43:08;17.30;86.70
46752;DHT22;32497;48.936;9.270;2023-05-07T15:48:11;17.20;87.30
46752;DHT22;32497;48.936;9.270;2023-05-07T15:53:12;17.20;86.10
46752;DHT22;32497;48.936;9.270;2023-05-07T15:58:13;17.10;87.10
46752;DHT22;32497;48.936;9.270;2023-05-07T16:03:15;17.10;86.80
46752;DHT22;32497;48.936;9.270;2023-05-07T16:08:16;17.10;87.10
46752;DHT22;32497;48.936;9.270;2023-05-07T16:13:17;16.90;86.60
46752;DHT22;32497;48.936;9.270;2023-05-07T16:18:20;16.80;87.60
46752;DHT22;32497;48.936;9.270;2023-05-07T16:23:21;16.60;88.20
46752;DHT22;32497;48.936;9.270;2023-05-07T16:28:22;16.40;88.90
46752;DHT22;32497;48.936;9.270;2023-05-07T16:33:25;16.30;89.80
46752;DHT22;32497;48.936;9.270;2023-05-07T16:38:26;16.30;90.30
46752;DHT22;32497;48.936;9.270;2023-05-07T16:43:27;16.30;90.00
46752;DHT22;32497;48.936;9.270;2023-05-07T16:48:29;16.20;90.30
46752;DHT22;32497;48.936;9.270;2023-05-07T16:53:30;16.30;90.50
46752;DHT22;32497;48.936;9.270;2023-05-07T16:58:31;16.20;90.10
46752;DHT22;32497;48.936;9.270;2023-05-07T17:03:34;16.20;90.10
46752;DHT22;32497;48.936;9.270;2023-05-07T17:08:35;16.10;89.80
46752;DHT22;32497;48.936;9.270;2023-05-07T17:13:37;16.10;90.30
46752;DHT22;32497;48.936;9.270;2023-05-07T17:18:39;16.20;90.30
46752;DHT22;32497;48.936;9.270;2023-05-07T17:23:41;16.10;90.00
46752;DHT22;32497;48.936;9.270;2023-05-07T17:28:42;16.20;89.80
46752;DHT22;32497;48.936;9.270;2023-05-07T17:33:44;16.10;89.20
46752;DHT22;32497;48.936;9.270;2023-05-07T17:38:45;16.10;89.90
46752;DHT22;32497;48.936;9.270;2023-05-07T17:43:46;16.10;90.10
46752;DHT22;32497;48.936;9.270;2023-05-07T17:48:49;16.00;89.70
46752;DHT22;32497;48.936;9.270;2023-05-07T17:53:50;16.00;89.80
46752;DHT22;32497;48.936;9.270;2023-05-07T17:58:51;15.90;90.10
46752;DHT22;32497;48.936;9.270;2023-05-07T18:03:54;15.90;90.20
46752;DHT22;32497;48.936;9.270;2023-05-07T18:08:55;15.90;90.20
46752;DHT22;32497;48.936;9.270;2023-05-07T18:13:56;15.80;90.70
46752;DHT22;32497;48.936;9.270;2023-05-07T18:18:58;15.80;90.70
46752;DHT22;32497;48.936;9.270;2023-05-07T18:23:59;15.70;90.40
46752;DHT22;32497;48.936;9.270;2023-05-07T18:29:01;15.80;90.30
46752;DHT22;32497;48.936;9.270;2023-05-07T18:34:03;15.80;90.30
46752;DHT22;32497;48.936;9.270;2023-05-07T18:39:04;15.60;89.90
46752;DHT22;32497;48.936;9.270;2023-05-07T18:44:06;15.60;90.30
46752;DHT22;32497;48.936;9.270;2023-05-07T18:49:08;15.60;90.50
46752;DHT22;32497;48.936;9.270;2023-05-07T18:54:09;15.40;90.10
46752;DHT22;32497;48.936;9.270;2023-05-07T18:59:10;15.40;90.70
46752;DHT22;32497;48.936;9.270;2023-05-07T19:04:13;15.40;91.00
46752;DHT22;32497;48.936;9.270;2023-05-07T19:09:14;15.30;90.80
46752;DHT22;32497;48.936;9.270;2023-05-07T19:14:15;15.30;90.80
46752;DHT22;32497;48.936;9.270;2023-05-07T19:19:18;15.20;91.00
46752;DHT22;32497;48.936;9.270;2023-05-07T19:24:19;15.20;91.50
46752;DHT22;32497;48.936;9.270;2023-05-07T19:29:20;15.20;91.10
46752;DHT22;32497;48.936;9.270;2023-05-07T19:34:22;15.20;91.20
46752;DHT22;32497;48.936;9.270;2023-05-07T19:39:24;15.20;91.20
46752;DHT22;32497;48.936;9.270;2023-05-07T19:44:25;15.20;91.30
46752;DHT22;32497;48.936;9.270;2023-05-07T19:49:27;15.30;91.40
46752;DHT22;32497;48.936;9.270;2023-05-07T19:54:28;15.20;90.70
46752;DHT22;32497;48.936;9.270;2023-05-07T19:59:29;15.20;91.30
46752;DHT22;32497;48.936;9.270;2023-05-07T20:04:32;15.10;91.20
46752;DHT22;32497;48.936;9.270;2023-05-07T20:09:33;15.10;91.20
46752;DHT22;32497;48.936;9.270;2023-05-07T20:14:34;15.10;91.30
46752;DHT22;32497;48.936;9.270;2023-05-07T20:19:37;15.20;91.50
46752;DHT22;32497;48.936;9.270;2023-05-07T20:24:38;15.30;91.60
46752;DHT22;32497;48.936;9.270;2023-05-07T20:29:39;15.40;91.40
46752;DHT22;32497;48.936;9.270;2023-05-07T20:34:43;15.30;91.50
46752;DHT22;32497;48.936;9.270;2023-05-07T20:39:44;15.30;91.20
46752;DHT22;32497;48.936;9.270;2023-05-07T20:44:45;15.20;91.30
46752;DHT22;32497;48.936;9.270;2023-05-07T20:49:50;15.20;91.20
46752;DHT22;32497;48.936;9.270;2023-05-07T20:54:51;15.10;91.60
46752;DHT22;32497;48.936;9.270;2023-05-07T20:59:52;15.10;91.90
46752;DHT22;32497;48.936;9.270;2023-05-07T21:04:54;15.10;91.90
46752;DHT22;32497;48.936;9.270;2023-05-07T21:09:55;15.20;92.10
46752;DHT22;32497;48.936;9.270;2023-05-07T21:14:56;15.10;92.00
46752;DHT22;32497;48.936;9.270;2023-05-07T21:19:59;15.10;92.20
46752;DHT22;32497;48.936;9.270;2023-05-07T21:25:00;15.10;92.00
46752;DHT22;32497;48.936;9.270;2023-05-07T21:30:01;15.20;92.00
46752;DHT22;32497;48.936;9.270;2023-05-07T21:35:05;15.20;91.80
46752;DHT22;32497;48.936;9.270;2023-05-07T21:40:07;15.10;92.00
46752;DHT22;32497;48.936;9.270;2023-05-07T21:45:09;15.10;92.10
46752;DHT22;32497;48.936;9.270;2023-05-07T21:50:12;15.10;92.00
46752;DHT22;32497;48.936;9.270;2023-05-07T21:55:13;15.10;91.70
46752;DHT22;32497;48.936;9.270;2023-05-07T22:00:14;15.10;91.40
46752;DHT22;32497;48.936;9.270;2023-05-07T22:05:17;15.00;91.50
46752;DHT22;32497;48.936;9.270;2023-05-07T22:10:18;14.90;91.20
46752;DHT22;32497;48.936;9.270;2023-05-07T22:15:19;14.70;91.40
46752;DHT22;32497;48.936;9.270;2023-05-07T22:20:22;14.70;91.70
46752;DHT22;32497;48.936;9.270;2023-05-07T22:25:24;14.70;91.90
46752;DHT22;32497;48.936;9.270;2023-05-07T22:30:25;14.70;91.90
46752;DHT22;32497;48.936;9.270;2023-05-07T22:35:28;14.70;91.70
46752;DHT22;32497;48.936;9.270;2023-05-07T22:40:29;14.70;91.70
46752;DHT22;32497;48.936;9.270;2023-05-07T22:45:32;14.70;91.60
46752;DHT22;32497;48.936;9.270;2023-05-07T22:50:36;14.70;91.70
46752;DHT22;32497;48.936;9.270;2023-05-07T22:55:38;14.70;91.80
46752;DHT22;32497;48.936;9.270;2023-05-07T23:00:39;14.80;91.80
46752;DHT22;32497;48.936;9.270;2023-05-07T23:05:41;14.90;91.60
46752;DHT22;32497;48.936;9.270;2023-05-07T23:10:42;14.70;91.50
46752;DHT22;32497;48.936;9.270;2023-05-07T23:15:43;14.70;91.50
46752;DHT22;32497;48.936;9.270;2023-05-07T23:20:46;14.70;91.50
46752;DHT22;32497;48.936;9.270;2023-05-07T23:25:50;14.70;91.80
46752;DHT22;32497;48.936;9.270;2023-05-07T23:30:51;14.60;91.90
46752;DHT22;32497;48.936;9.270;2023-05-07T23:35:59;14.50;91.90
46752;DHT22;32497;48.936;9.270;2023-05-07T23:41:00;14.60;92.10
46752;DHT22;32497;48.936;9.270;2023-05-07T23:46:01;14.50;92.10
46752;DHT22;32497;48.936;9.270;2023-05-07T23:51:03;14.60;92.20
46752;DHT22;32497;48.936;9.270;2023-05-07T23:56:05;14.70;91.90
